sensor_id;sensor_type;location;lat;lon;timestamp;pressure;altitude;pressure_sealevel;temperature;humidity
32789;BME280;19141;48.980;8.410;2023-02-22T05:22:32;100016.84;;;1.95;100.00
32789;BME280;19141;48.980;8.410;2023-02-22T05:24:57;100013.84;;;1.99;100.00
32789;BME280;19141;48.980;8.410;2023-02-22T05:27:23;100021.88;;;1.98;100.00
32789;BME280;19141;48.980;8.410;2023-02-22T05:29:48;100017.44;;;1.98;100.00
32789;BME280;19141;48.980;8.410;2023-02-22T05:32:13;100025.44;;;1.97;100.00
32789;BME280;19141;48.980;8.410;2023-02-22T05:34:39;100020.31;;;1.95;100.00
32789;BME280;19141;48.980;8.410;2023-02-22T05:37:04;100021.41;;;1.93;100.00
32789;BME280;19141;48.980;8.410;2023-02-22T05:39:30;100015.44;;;1.90;100.00
32789;BME280;19141;48.980;8.410;2023-02-22T05:41:56;100013.16;;;1.97;100.00
32789;BME280;19141;48.980;8.410;2023-02-22T05:44:21;100016.84;;;1.95;100.00
32789;BME280;19141;48.980;8.410;2023-02-22T05:46:47;100018.75;;;1.93;100.00
32789;BME280;19141;48.980;8.410;2023-02-22T05:49:12;100025.56;;;1.95;100.00
32789;BME280;19141;48.980;8.410;2023-02-22T05:51:38;100021.53;;;1.91;100.00
32789;BME280;19141;48.980;8.410;2023-02-22T05:54:03;100019.84;;;1.90;100.00
32789;BME280;19141;48.980;8.410;2023-02-22T05:56:29;100027.84;;;1.88;100.00
32789;BME280;19141;48.980;8.410;2023-02-22T05:58:55;100025.94;;;1.90;100.00
32789;BME280;19141;48.980;8.410;2023-02-22T06:01:21;100018.63;;;1.94;100.00
32789;BME280;19141;48.980;8.410;2023-02-22T06:03:48;100015.19;;;1.94;100.00
32789;BME280;19141;48.980;8.410;2023-02-22T06:06:14;100017.66;;;1.95;100.00
32789;BME280;19141;48.980;8.410;2023-02-22T06:08:39;100040.03;;;1.89;100.00
32789;BME280;19141;48.980;8.410;2023-02-22T06:11:05;100027.28;;;1.85;100.00
32789;BME280;19141;48.980;8.410;2023-02-22T06:13:30;100016.88;;;1.83;100.00
32789;BME280;19141;48.980;8.410;2023-02-22T06:15:55;100029.97;;;1.95;100.00
32789;BME280;19141;48.980;8.410;2023-02-22T06:18:21;100022.94;;;1.95;100.00
32789;BME280;19141;48.980;8.410;2023-02-22T06:20:46;100034.03;;;1.99;100.00
32789;BME280;19141;48.980;8.410;2023-02-22T06:23:12;100032.38;;;1.98;100.00
32789;BME280;19141;48.980;8.410;2023-02-22T06:25:37;100030.44;;;2.00;100.00
32789;BME280;19141;48.980;8.410;2023-02-22T06:28:03;100041.31;;;1.95;100.00
32789;BME280;19141;48.980;8.410;2023-02-22T06:30:29;100045.03;;;1.93;100.00
32789;BME280;19141;48.980;8.410;2023-02-22T06:32:54;100046.34;;;1.87;100.00
32789;BME280;19141;48.980;8.410;2023-02-22T06:35:21;100048.16;;;1.86;100.00
32789;BME280;19141;48.980;8.410;2023-02-22T06:37:46;100044.41;;;2.00;100.00
32789;BME280;19141;48.980;8.410;2023-02-22T06:40:12;100037.25;;;2.02;100.00
32789;BME280;19141;48.980;8.410;2023-02-22T06:42:38;100046.81;;;2.03;100.00
32789;BME280;19141;48.980;8.410;2023-02-22T06:45:04;100048.13;;;1.98;100.00
32789;BME280;19141;48.980;8.410;2023-02-22T06:47:30;100040.72;;;2.03;100.00
32789;BME280;19141;48.980;8.410;2023-02-22T06:49:56;100045.59;;;2.07;100.00
32789;BME280;19141;48.980;8.410;2023-02-22T06:52:23;100042.97;;;2.07;100.00
32789;BME280;19141;48.980;8.410;2023-02-22T06:54:48;100044.75;;;2.07;100.00
32789;BME280;19141;48.980;8.410;2023-02-22T06:57:14;100054.66;;;2.14;100.00
32789;BME280;19141;48.980;8.410;2023-02-22T06:59:39;100056.34;;;2.15;100.00
32789;BME280;19141;48.980;8.410;2023-02-22T07:02:05;100058.06;;;2.26;100.00
32789;BME280;19141;48.980;8.410;2023-02-22T07:04:30;100061.19;;;2.31;100.00
32789;BME280;19141;48.980;8.410;2023-02-22T07:06:56;100065.22;;;2.35;100.00
32789;BME280;19141;48.980;8.410;2023-02-22T07:09:21;100068.28;;;2.40;100.00
32789;BME280;19141;48.980;8.410;2023-02-22T07:11:46;100069.38;;;2.49;100.00
32789;BME280;19141;48.980;8.410;2023-02-22T07:14:12;100071.59;;;2.54;100.00
32789;BME280;19141;48.980;8.410;2023-02-22T07:16:37;100061.63;;;2.68;100.00
32789;BME280;19141;48.980;8.410;2023-02-22T07:19:03;100065.28;;;2.77;100.00
32789;BME280;19141;48.980;8.410;2023-02-22T07:21:28;100071.00;;;2.82;100.00
32789;BME280;19141;48.980;8.410;2023-02-22T07:23:57;100068.56;;;2.90;100.00
32789;BME280;19141;48.980;8.410;2023-02-22T07:26:23;100067.22;;;2.96;100.00
32789;BME280;19141;48.980;8.410;2023-02-22T07:28:49;100065.59;;;3.05;100.00
32789;BME280;19141;48.980;8.410;2023-02-22T07:31:15;100071.03;;;3.13;100.00
32789;BME280;19141;48.980;8.410;2023-02-22T07:33:41;100071.34;;;3.19;100.00
32789;BME280;19141;48.980;8.410;2023-02-22T07:36:07;100068.91;;;3.28;100.00
32789;BME280;19141;48.980;8.410;2023-02-22T07:38:33;100052.84;;;3.31;100.00
32789;BME280;19141;48.980;8.410;2023-02-22T07:40:58;100066.94;;;3.50;100.00
32789;BME280;19141;48.980;8.410;2023-02-22T07:43:26;100073.09;;;3.61;100.00
32789;BME280;19141;48.980;8.410;2023-02-22T07:45:54;100069.66;;;3.70;100.00
32789;BME280;19141;48.980;8.410;2023-02-22T07:48:22;100062.19;;;3.75;100.00
32789;BME280;19141;48.980;8.410;2023-02-22T07:50:48;100067.06;;;3.89;100.00
32789;BME280;19141;48.980;8.410;2023-02-22T07:53:17;100056.00;;;3.95;100.00
32789;BME280;19141;48.980;8.410;2023-02-22T07:55:43;100053.78;;;4.00;100.00
32789;BME280;19141;48.980;8.410;2023-02-22T07:58:12;100053.25;;;4.06;100.00
32789;BME280;19141;48.980;8.410;2023-02-22T08:00:39;100043.97;;;4.12;100.00
32789;BME280;19141;48.980;8.410;2023-02-22T08:03:08;100048.00;;;4.26;100.00
32789;BME280;19141;48.980;8.410;2023-02-22T08:05:35;100047.31;;;4.33;100.00
32789;BME280;19141;48.980;8.410;2023-02-22T08:08:01;100049.94;;;4.43;100.00
32789;BME280;19141;48.980;8.410;2023-02-22T08:10:27;100050.94;;;4.52;100.00
32789;BME280;19141;48.980;8.410;2023-02-22T08:12:53;100047.28;;;4.62;100.00
32789;BME280;19141;48.980;8.410;2023-02-22T08:15:35;100046.88;;;4.77;100.00
32789;BME280;19141;48.980;8.410;2023-02-22T08:18:03;100046.03;;;4.86;100.00
32789;BME280;19141;48.980;8.410;2023-02-22T08:20:30;100051.56;;;5.02;100.00
32789;BME280;19141;48.980;8.410;2023-02-22T08:22:56;100044.28;;;5.14;100.00
32789;BME280;19141;48.980;8.410;2023-02-22T08:25:25;100053.69;;;5.36;100.00
32789;BME280;19141;48.980;8.410;2023-02-22T08:27:52;100045.00;;;5.53;100.00
32789;BME280;19141;48.980;8.410;2023-02-22T08:30:23;100056.03;;;5.76;100.00
32789;BME280;19141;48.980;8.410;2023-02-22T08:32:49;100049.41;;;5.90;100.00
32789;BME280;19141;48.980;8.410;2023-02-22T08:35:16;100055.28;;;6.11;100.00
32789;BME280;19141;48.980;8.410;2023-02-22T08:37:47;100051.03;;;6.28;100.00
32789;BME280;19141;48.980;8.410;2023-02-22T08:40:14;100048.22;;;6.47;100.00
32789;BME280;19141;48.980;8.410;2023-02-22T08:42:42;100046.31;;;6.58;100.00
32789;BME280;19141;48.980;8.410;2023-02-22T08:45:08;100050.22;;;6.71;100.00
32789;BME280;19141;48.980;8.410;2023-02-22T08:47:34;100045.75;;;6.90;99.77
32789;BME280;19141;48.980;8.410;2023-02-22T08:50:00;100047.53;;;7.07;98.34
32789;BME280;19141;48.980;8.410;2023-02-22T08:52:25;100048.41;;;7.16;97.99
32789;BME280;19141;48.980;8.410;2023-02-22T08:54:51;100047.78;;;7.22;96.38
32789;BME280;19141;48.980;8.410;2023-02-22T08:57:16;100042.72;;;7.37;95.22
32789;BME280;19141;48.980;8.410;2023-02-22T08:59:41;100038.50;;;7.44;96.13
32789;BME280;19141;48.980;8.410;2023-02-22T09:02:18;100043.16;;;7.50;94.22
32789;BME280;19141;48.980;8.410;2023-02-22T09:04:44;100041.16;;;7.52;94.57
32789;BME280;19141;48.980;8.410;2023-02-22T09:07:11;100043.69;;;7.61;93.64
32789;BME280;19141;48.980;8.410;2023-02-22T09:09:36;100045.94;;;7.82;93.40
32789;BME280;19141;48.980;8.410;2023-02-22T09:12:02;100040.47;;;7.84;91.25
32789;BME280;19141;48.980;8.410;2023-02-22T09:14:28;100037.22;;;7.98;89.99
32789;BME280;19141;48.980;8.410;2023-02-22T09:16:53;100038.38;;;8.04;91.70
32789;BME280;19141;48.980;8.410;2023-02-22T09:19:18;100033.78;;;8.22;90.17
32789;BME280;19141;48.980;8.410;2023-02-22T09:21:44;100040.94;;;8.30;88.73
32789;BME280;19141;48.980;8.410;2023-02-22T09:24:09;100033.44;;;8.33;90.34
32789;BME280;19141;48.980;8.410;2023-02-22T09:26:38;100039.13;;;8.38;87.37
32789;BME280;19141;48.980;8.410;2023-02-22T09:29:08;100029.19;;;8.57;87.21
32789;BME280;19141;48.980;8.410;2023-02-22T09:31:37;100031.53;;;8.68;86.43
32789;BME280;19141;48.980;8.410;2023-02-22T09:34:04;100027.56;;;8.80;87.10
32789;BME280;19141;48.980;8.410;2023-02-22T09:36:41;100029.84;;;8.91;85.83
32789;BME280;19141;48.980;8.410;2023-02-22T09:39:07;100035.81;;;9.10;82.78
32789;BME280;19141;48.980;8.410;2023-02-22T09:44:21;100019.09;;;9.48;80.40
32789;BME280;19141;48.980;8.410;2023-02-22T09:46:49;100020.25;;;9.54;78.69
32789;BME280;19141;48.980;8.410;2023-02-22T09:49:30;100015.06;;;9.61;76.83
32789;BME280;19141;48.980;8.410;2023-02-22T09:52:09;100011.03;;;9.65;79.11
32789;BME280;19141;48.980;8.410;2023-02-22T09:54:45;100021.56;;;9.89;79.28
32789;BME280;19141;48.980;8.410;2023-02-22T09:57:20;100021.84;;;10.02;77.35
32789;BME280;19141;48.980;8.410;2023-02-22T09:59:56;100007.63;;;10.18;77.44
32789;BME280;19141;48.980;8.410;2023-02-22T10:02:37;100007.25;;;10.21;76.84
32789;BME280;19141;48.980;8.410;2023-02-22T10:05:12;100013.34;;;10.38;75.13
32789;BME280;19141;48.980;8.410;2023-02-22T10:07:52;99999.09;;;10.69;73.35
32789;BME280;19141;48.980;8.410;2023-02-22T10:10:22;100003.34;;;11.30;72.63
32789;BME280;19141;48.980;8.410;2023-02-22T10:21:20;100008.59;;;13.18;64.91
32789;BME280;19141;48.980;8.410;2023-02-22T10:26:30;100005.81;;;14.35;59.11
32789;BME280;19141;48.980;8.410;2023-02-22T10:29:02;99993.09;;;14.83;56.69
32789;BME280;19141;48.980;8.410;2023-02-22T10:31:35;99999.84;;;15.39;56.23
32789;BME280;19141;48.980;8.410;2023-02-22T10:34:08;99996.38;;;14.85;54.24
32789;BME280;19141;48.980;8.410;2023-02-22T10:36:36;99992.88;;;14.98;54.53
32789;BME280;19141;48.980;8.410;2023-02-22T10:39:32;99991.41;;;15.22;52.33
32789;BME280;19141;48.980;8.410;2023-02-22T10:42:03;99990.88;;;15.58;51.43
32789;BME280;19141;48.980;8.410;2023-02-22T10:44:32;99987.38;;;15.58;51.69
32789;BME280;19141;48.980;8.410;2023-02-22T10:46:59;99984.38;;;15.21;51.66
32789;BME280;19141;48.980;8.410;2023-02-22T10:49:30;99984.41;;;15.08;52.81
32789;BME280;19141;48.980;8.410;2023-02-22T10:52:00;99984.44;;;14.55;53.31
32789;BME280;19141;48.980;8.410;2023-02-22T10:54:33;99979.63;;;15.23;53.36
32789;BME280;19141;48.980;8.410;2023-02-22T10:57:00;99987.09;;;15.08;53.54
32789;BME280;19141;48.980;8.410;2023-02-22T10:59:29;99988.16;;;14.87;55.06
32789;BME280;19141;48.980;8.410;2023-02-22T11:01:57;99979.06;;;14.95;52.42
32789;BME280;19141;48.980;8.410;2023-02-22T11:04:23;99983.16;;;15.17;51.48
32789;BME280;19141;48.980;8.410;2023-02-22T11:07:17;99979.25;;;14.60;52.48
32789;BME280;19141;48.980;8.410;2023-02-22T11:09:51;99984.00;;;14.58;53.38
32789;BME280;19141;48.980;8.410;2023-02-22T11:12:30;99976.56;;;14.47;53.38
32789;BME280;19141;48.980;8.410;2023-02-22T11:15:01;99974.50;;;15.15;53.23
32789;BME280;19141;48.980;8.410;2023-02-22T11:17:49;99958.84;;;14.85;52.37
32789;BME280;19141;48.980;8.410;2023-02-22T11:22:51;99956.03;;;15.38;51.91
32789;BME280;19141;48.980;8.410;2023-02-22T11:25:20;99955.72;;;15.80;49.56
32789;BME280;19141;48.980;8.410;2023-02-22T11:27:47;99946.25;;;16.40;48.24
32789;BME280;19141;48.980;8.410;2023-02-22T11:30:28;99951.13;;;15.87;49.63
32789;BME280;19141;48.980;8.410;2023-02-22T11:35:49;99943.31;;;17.35;46.22
32789;BME280;19141;48.980;8.410;2023-02-22T11:38:22;99939.84;;;17.83;43.58
32789;BME280;19141;48.980;8.410;2023-02-22T11:43:42;99935.41;;;18.30;42.82
32789;BME280;19141;48.980;8.410;2023-02-22T11:46:15;99917.97;;;18.33;42.74
32789;BME280;19141;48.980;8.410;2023-02-22T11:48:46;99918.50;;;19.00;41.91
32789;BME280;19141;48.980;8.410;2023-02-22T11:51:32;99923.81;;;19.87;39.50
32789;BME280;19141;48.980;8.410;2023-02-22T11:56:58;99922.91;;;18.48;41.58
32789;BME280;19141;48.980;8.410;2023-02-22T11:59:35;99911.66;;;19.21;40.09
32789;BME280;19141;48.980;8.410;2023-02-22T12:04:53;99908.25;;;19.14;38.95
32789;BME280;19141;48.980;8.410;2023-02-22T12:13:14;99898.19;;;19.61;38.75
32789;BME280;19141;48.980;8.410;2023-02-22T12:15:52;99896.88;;;20.54;37.47
32789;BME280;19141;48.980;8.410;2023-02-22T12:18:42;99898.16;;;21.46;36.47
32789;BME280;19141;48.980;8.410;2023-02-22T12:21:17;99893.59;;;21.08;36.91
32789;BME280;19141;48.980;8.410;2023-02-22T12:26:27;99894.56;;;21.40;35.57
32789;BME280;19141;48.980;8.410;2023-02-22T12:29:03;99886.69;;;21.39;35.60
32789;BME280;19141;48.980;8.410;2023-02-22T12:31:43;99882.75;;;20.52;37.41
32789;BME280;19141;48.980;8.410;2023-02-22T12:37:16;99889.66;;;21.59;36.27
32789;BME280;19141;48.980;8.410;2023-02-22T12:40:08;99888.16;;;21.47;35.47
32789;BME280;19141;48.980;8.410;2023-02-22T12:45:42;99880.31;;;22.68;34.04
32789;BME280;19141;48.980;8.410;2023-02-22T12:51:14;99876.38;;;22.86;33.66
32789;BME280;19141;48.980;8.410;2023-02-22T12:53:48;99876.34;;;20.75;37.35
32789;BME280;19141;48.980;8.410;2023-02-22T12:56:24;99878.81;;;21.37;35.76
32789;BME280;19141;48.980;8.410;2023-02-22T12:59:18;99876.84;;;20.72;36.59
32789;BME280;19141;48.980;8.410;2023-02-22T13:01:50;99881.25;;;20.78;36.94
32789;BME280;19141;48.980;8.410;2023-02-22T13:04:18;99880.06;;;20.36;38.62
32789;BME280;19141;48.980;8.410;2023-02-22T13:06:58;99878.00;;;20.09;37.83
32789;BME280;19141;48.980;8.410;2023-02-22T13:12:37;99868.16;;;18.82;40.21
32789;BME280;19141;48.980;8.410;2023-02-22T13:20:33;99867.09;;;18.48;41.94
32789;BME280;19141;48.980;8.410;2023-02-22T13:25:57;99870.78;;;18.00;42.65
32789;BME280;19141;48.980;8.410;2023-02-22T13:28:35;99865.47;;;17.63;43.49
32789;BME280;19141;48.980;8.410;2023-02-22T13:31:25;99865.22;;;17.83;43.94
32789;BME280;19141;48.980;8.410;2023-02-22T13:34:16;99864.41;;;17.83;43.35
32789;BME280;19141;48.980;8.410;2023-02-22T13:52:54;99857.84;;;16.75;47.04
32789;BME280;19141;48.980;8.410;2023-02-22T13:55:24;99866.06;;;16.55;48.05
32789;BME280;19141;48.980;8.410;2023-02-22T13:58:01;99861.69;;;16.36;48.29
32789;BME280;19141;48.980;8.410;2023-02-22T14:00:47;99858.94;;;16.24;48.17
32789;BME280;19141;48.980;8.410;2023-02-22T14:08:04;99852.81;;;15.86;49.96
32789;BME280;19141;48.980;8.410;2023-02-22T14:13:07;99863.00;;;15.70;50.30
32789;BME280;19141;48.980;8.410;2023-02-22T14:15:33;99853.72;;;15.73;50.69
32789;BME280;19141;48.980;8.410;2023-02-22T14:18:01;99861.41;;;15.63;50.86
32789;BME280;19141;48.980;8.410;2023-02-22T14:20:33;99865.31;;;15.60;51.45
32789;BME280;19141;48.980;8.410;2023-02-22T14:25:48;99862.69;;;15.54;51.61
32789;BME280;19141;48.980;8.410;2023-02-22T14:31:09;99858.84;;;15.36;53.34
32789;BME280;19141;48.980;8.410;2023-02-22T14:33:59;99855.84;;;15.13;53.08
32789;BME280;19141;48.980;8.410;2023-02-22T14:37:04;99860.53;;;15.24;53.64
32789;BME280;19141;48.980;8.410;2023-02-22T14:39:37;99857.50;;;15.14;53.39
32789;BME280;19141;48.980;8.410;2023-02-22T14:42:05;99854.44;;;15.04;54.68
32789;BME280;19141;48.980;8.410;2023-02-22T14:44:36;99846.63;;;14.96;55.03
32789;BME280;19141;48.980;8.410;2023-02-22T14:47:06;99844.34;;;14.86;55.13
32789;BME280;19141;48.980;8.410;2023-02-22T14:49:38;99855.09;;;14.86;56.48
32789;BME280;19141;48.980;8.410;2023-02-22T14:52:15;99849.34;;;14.82;55.96
32789;BME280;19141;48.980;8.410;2023-02-22T14:57:49;99846.09;;;14.67;57.73
32789;BME280;19141;48.980;8.410;2023-02-22T15:00:23;99840.53;;;14.62;57.37
32789;BME280;19141;48.980;8.410;2023-02-22T15:02:56;99836.59;;;14.58;58.08
32789;BME280;19141;48.980;8.410;2023-02-22T15:05:25;99843.38;;;14.60;58.49
32789;BME280;19141;48.980;8.410;2023-02-22T15:07:59;99837.22;;;14.47;59.49
32789;BME280;19141;48.980;8.410;2023-02-22T15:10:44;99840.53;;;14.35;59.34
32789;BME280;19141;48.980;8.410;2023-02-22T15:13:22;99839.50;;;14.30;59.19
32789;BME280;19141;48.980;8.410;2023-02-22T15:15:55;99829.81;;;14.29;58.34
32789;BME280;19141;48.980;8.410;2023-02-22T15:20:56;99846.72;;;14.23;58.26
32789;BME280;19141;48.980;8.410;2023-02-22T15:23:24;99836.41;;;14.13;58.11
32789;BME280;19141;48.980;8.410;2023-02-22T15:25:51;99844.03;;;14.16;58.50
32789;BME280;19141;48.980;8.410;2023-02-22T15:28:17;99836.19;;;14.15;57.84
32789;BME280;19141;48.980;8.410;2023-02-22T15:30:43;99836.00;;;14.09;58.43
32789;BME280;19141;48.980;8.410;2023-02-22T15:35:36;99841.16;;;13.98;59.22
32789;BME280;19141;48.980;8.410;2023-02-22T15:40:38;99834.53;;;13.94;59.73
32789;BME280;19141;48.980;8.410;2023-02-22T15:43:16;99835.78;;;13.84;59.96
32789;BME280;19141;48.980;8.410;2023-02-22T15:45:41;99831.44;;;13.77;60.54
32789;BME280;19141;48.980;8.410;2023-02-22T15:48:10;99840.31;;;13.77;60.37
32789;BME280;19141;48.980;8.410;2023-02-22T15:50:36;99835.16;;;13.69;61.20
32789;BME280;19141;48.980;8.410;2023-02-22T15:55:46;99833.88;;;13.58;61.48
32789;BME280;19141;48.980;8.410;2023-02-22T16:00:41;99838.59;;;13.50;62.02
32789;BME280;19141;48.980;8.410;2023-02-22T16:03:12;99839.59;;;13.49;62.62
32789;BME280;19141;48.980;8.410;2023-02-22T16:05:43;99842.25;;;13.36;62.51
32789;BME280;19141;48.980;8.410;2023-02-22T16:08:28;99854.56;;;13.30;63.01
32789;BME280;19141;48.980;8.410;2023-02-22T16:11:03;99848.81;;;13.33;62.51
32789;BME280;19141;48.980;8.410;2023-02-22T16:13:32;99840.50;;;13.15;63.60
32789;BME280;19141;48.980;8.410;2023-02-22T16:16:02;99853.94;;;13.21;63.34
32789;BME280;19141;48.980;8.410;2023-02-22T16:18:35;99856.34;;;13.16;63.68
32789;BME280;19141;48.980;8.410;2023-02-22T16:23:31;99863.13;;;13.12;64.90
32789;BME280;19141;48.980;8.410;2023-02-22T16:26:28;99866.59;;;13.06;64.33
32789;BME280;19141;48.980;8.410;2023-02-22T16:28:58;99867.38;;;13.00;65.08
32789;BME280;19141;48.980;8.410;2023-02-22T16:31:33;99864.91;;;12.98;65.26
32789;BME280;19141;48.980;8.410;2023-02-22T16:34:03;99868.13;;;12.87;65.50
32789;BME280;19141;48.980;8.410;2023-02-22T16:36:38;99867.88;;;12.82;66.24
32789;BME280;19141;48.980;8.410;2023-02-22T16:39:31;99868.47;;;12.77;66.55
32789;BME280;19141;48.980;8.410;2023-02-22T16:41:58;99870.28;;;12.70;66.88
32789;BME280;19141;48.980;8.410;2023-02-22T16:44:25;99863.69;;;12.66;67.06
32789;BME280;19141;48.980;8.410;2023-02-22T16:46:58;99869.41;;;12.63;67.20
32789;BME280;19141;48.980;8.410;2023-02-22T16:49:25;99872.25;;;12.55;67.84
32789;BME280;19141;48.980;8.410;2023-02-22T16:51:55;99871.19;;;12.49;68.16
32789;BME280;19141;48.980;8.410;2023-02-22T16:54:26;99877.75;;;12.47;69.02
32789;BME280;19141;48.980;8.410;2023-02-22T16:56:55;99873.78;;;12.43;69.77
32789;BME280;19141;48.980;8.410;2023-02-22T16:59:21;99878.88;;;12.38;70.30
32789;BME280;19141;48.980;8.410;2023-02-22T17:01:47;99879.91;;;12.37;71.10
32789;BME280;19141;48.980;8.410;2023-02-22T17:04:20;99881.72;;;12.30;72.24
32789;BME280;19141;48.980;8.410;2023-02-22T17:06:46;99892.59;;;12.28;73.04
32789;BME280;19141;48.980;8.410;2023-02-22T17:09:13;99887.19;;;12.21;73.54
32789;BME280;19141;48.980;8.410;2023-02-22T17:11:40;99883.25;;;12.17;74.04
32789;BME280;19141;48.980;8.410;2023-02-22T17:14:06;99879.94;;;12.15;74.80
32789;BME280;19141;48.980;8.410;2023-02-22T17:16:32;99878.25;;;12.08;75.56
32789;BME280;19141;48.980;8.410;2023-02-22T17:18:57;99891.41;;;12.09;76.19
32789;BME280;19141;48.980;8.410;2023-02-22T17:21:23;99885.59;;;12.06;76.54
32789;BME280;19141;48.980;8.410;2023-02-22T17:23:48;99893.19;;;12.02;77.27
32789;BME280;19141;48.980;8.410;2023-02-22T17:26:15;99888.34;;;11.91;77.77
32789;BME280;19141;48.980;8.410;2023-02-22T17:28:41;99890.44;;;11.95;78.02
32789;BME280;19141;48.980;8.410;2023-02-22T17:31:20;99901.31;;;11.94;78.58
32789;BME280;19141;48.980;8.410;2023-02-22T17:33:46;99896.09;;;11.86;79.67
32789;BME280;19141;48.980;8.410;2023-02-22T17:36:12;99899.56;;;11.86;80.19
32789;BME280;19141;48.980;8.410;2023-02-22T17:38:37;99907.59;;;11.86;80.59
32789;BME280;19141;48.980;8.410;2023-02-22T17:41:06;99902.63;;;11.83;80.97
32789;BME280;19141;48.980;8.410;2023-02-22T17:43:31;99905.84;;;11.79;81.40
32789;BME280;19141;48.980;8.410;2023-02-22T17:45:57;99897.00;;;11.78;81.83
32789;BME280;19141;48.980;8.410;2023-02-22T17:48:23;99913.50;;;11.82;82.01
32789;BME280;19141;48.980;8.410;2023-02-22T17:50:49;99915.06;;;11.76;82.82
32789;BME280;19141;48.980;8.410;2023-02-22T17:53:15;99903.28;;;11.71;83.02
32789;BME280;19141;48.980;8.410;2023-02-22T17:55:42;99917.25;;;11.73;83.52
32789;BME280;19141;48.980;8.410;2023-02-22T17:58:10;99916.06;;;11.75;83.43
32789;BME280;19141;48.980;8.410;2023-02-22T18:00:44;99910.75;;;11.75;83.72
32789;BME280;19141;48.980;8.410;2023-02-22T18:03:13;99908.28;;;11.74;84.26
32789;BME280;19141;48.980;8.410;2023-02-22T18:05:46;99908.44;;;11.72;84.66
32789;BME280;19141;48.980;8.410;2023-02-22T18:08:12;99903.50;;;11.69;84.73
32789;BME280;19141;48.980;8.410;2023-02-22T18:10:38;99910.28;;;11.72;84.76
32789;BME280;19141;48.980;8.410;2023-02-22T18:13:04;99905.50;;;11.67;85.04
32789;BME280;19141;48.980;8.410;2023-02-22T18:15:29;99912.88;;;11.65;85.21
32789;BME280;19141;48.980;8.410;2023-02-22T18:18:00;99913.88;;;11.64;85.14
32789;BME280;19141;48.980;8.410;2023-02-22T18:20:26;99917.38;;;11.64;85.34
32789;BME280;19141;48.980;8.410;2023-02-22T18:22:56;99923.66;;;11.57;85.94
32789;BME280;19141;48.980;8.410;2023-02-22T18:25:23;99915.03;;;11.55;86.19
32789;BME280;19141;48.980;8.410;2023-02-22T18:27:49;99910.88;;;11.52;86.64
32789;BME280;19141;48.980;8.410;2023-02-22T18:30:14;99909.63;;;11.48;87.04
32789;BME280;19141;48.980;8.410;2023-02-22T18:32:40;99919.63;;;11.46;87.11
32789;BME280;19141;48.980;8.410;2023-02-22T18:35:06;99914.22;;;11.39;87.24
32789;BME280;19141;48.980;8.410;2023-02-22T18:37:32;99913.19;;;11.40;87.26
32789;BME280;19141;48.980;8.410;2023-02-22T18:39:58;99917.63;;;11.33;87.38
32789;BME280;19141;48.980;8.410;2023-02-22T18:42:27;99909.53;;;11.27;87.21
32789;BME280;19141;48.980;8.410;2023-02-22T18:44:53;99918.34;;;11.27;87.37
32789;BME280;19141;48.980;8.410;2023-02-22T18:47:20;99913.78;;;11.21;87.74
32789;BME280;19141;48.980;8.410;2023-02-22T18:49:46;99908.00;;;11.18;87.75
32789;BME280;19141;48.980;8.410;2023-02-22T18:52:13;99871.97;;;10.92;88.06
32789;BME280;19141;48.980;8.410;2023-02-22T18:54:42;99914.06;;;11.11;88.05
32789;BME280;19141;48.980;8.410;2023-02-22T18:57:11;99908.44;;;11.06;88.33
32789;BME280;19141;48.980;8.410;2023-02-22T18:59:38;99911.31;;;11.05;88.94
32789;BME280;19141;48.980;8.410;2023-02-22T19:02:03;99916.00;;;11.03;88.75
32789;BME280;19141;48.980;8.410;2023-02-22T19:04:29;99918.38;;;10.98;89.14
32789;BME280;19141;48.980;8.410;2023-02-22T19:06:55;99913.41;;;10.95;89.46
32789;BME280;19141;48.980;8.410;2023-02-22T19:09:22;99914.63;;;10.92;89.95
32789;BME280;19141;48.980;8.410;2023-02-22T19:11:48;99904.69;;;10.86;89.94
32789;BME280;19141;48.980;8.410;2023-02-22T19:14:16;99911.22;;;10.83;90.36
32789;BME280;19141;48.980;8.410;2023-02-22T19:16:42;99902.75;;;10.80;90.32
32789;BME280;19141;48.980;8.410;2023-02-22T19:19:12;99902.94;;;10.78;89.94
32789;BME280;19141;48.980;8.410;2023-02-22T19:21:39;99907.63;;;10.76;90.38
32789;BME280;19141;48.980;8.410;2023-02-22T19:24:05;99908.63;;;10.75;90.96
32789;BME280;19141;48.980;8.410;2023-02-22T19:26:30;99881.69;;;10.55;90.61
32789;BME280;19141;48.980;8.410;2023-02-22T19:28:57;99910.47;;;10.75;90.59
32789;BME280;19141;48.980;8.410;2023-02-22T19:31:26;99903.19;;;10.69;90.67
32789;BME280;19141;48.980;8.410;2023-02-22T19:33:54;99906.03;;;10.67;91.09
32789;BME280;19141;48.980;8.410;2023-02-22T19:36:20;99905.84;;;10.69;90.52
32789;BME280;19141;48.980;8.410;2023-02-22T19:38:49;99908.91;;;10.66;91.06
32789;BME280;19141;48.980;8.410;2023-02-22T19:41:20;99907.25;;;10.65;91.05
32789;BME280;19141;48.980;8.410;2023-02-22T19:43:50;99908.63;;;10.60;91.29
32789;BME280;19141;48.980;8.410;2023-02-22T19:46:16;99911.47;;;10.59;91.76
32789;BME280;19141;48.980;8.410;2023-02-22T19:48:48;99908.31;;;10.55;91.63
32789;BME280;19141;48.980;8.410;2023-02-22T19:51:16;99907.50;;;10.55;91.64
32789;BME280;19141;48.980;8.410;2023-02-22T19:53:42;99904.19;;;10.53;91.49
32789;BME280;19141;48.980;8.410;2023-02-22T19:56:10;99911.69;;;10.49;92.08
32789;BME280;19141;48.980;8.410;2023-02-22T19:58:37;99910.25;;;10.47;92.10
32789;BME280;19141;48.980;8.410;2023-02-22T20:01:16;99911.69;;;10.49;91.79
32789;BME280;19141;48.980;8.410;2023-02-22T20:04:20;99877.16;;;10.26;92.16
32789;BME280;19141;48.980;8.410;2023-02-22T20:06:43;99908.94;;;10.43;92.10
32789;BME280;19141;48.980;8.410;2023-02-22T20:09:15;99915.13;;;10.43;92.22
32789;BME280;19141;48.980;8.410;2023-02-22T20:11:42;99915.94;;;10.44;92.18
32789;BME280;19141;48.980;8.410;2023-02-22T20:14:16;99912.63;;;10.42;92.31
32789;BME280;19141;48.980;8.410;2023-02-22T20:16:42;99916.94;;;10.43;92.13